KJVL/JVL METAR and TAF weather

Enter ICAO airport designator
Station Type Date Time Source
KJVL METAR 2022/12/04 04:35 UTC NOAA

KJVL 040435Z AUTO 23005KT 10SM CLR M08/M13 A3038 RMK AO2


Station Type Date Time Source
KJVL Decoded METAR 2022/12/04 04:35 UTC NOAA

Janesville / Rock County, WI, United States (KJVL) 42-37N 089-02W
Dec 03, 2022 - 11:35 PM EST / 2022.12.04 0435 UTC
Wind: from the SW (230 degrees) at 6 MPH (5 KT):0
Visibility: 10 mile(s):0
Sky conditions: clear
Temperature: 17 F (-8 C)
Windchill: 8 F (-13 C):1
Dew Point: 8 F (-13 C)
Relative Humidity: 67%
Pressure (altimeter): 30.38 in. Hg (1028 hPa)
ob: KJVL 040435Z AUTO 23005KT 10SM CLR M08/M13 A3038 RMK AO2
cycle: 4

Station Type Date Time Source
KJVL TAF 2022/12/03 21:12 UTC NOAA

TAF
AMD KJVL 032109Z 0321/0418 28010KT P6SM SKC
FM040300 24006KT P6SM SKC
FM041500 23011G19KT P6SM SKC

Example: see airport list